createdAt,value
2019-02-25T00:00:31.781Z,14.13
2019-02-25T00:03:06.376Z,13.07
2019-02-25T00:08:10.615Z,7.75
2019-02-25T00:10:43.315Z,7.12
2019-02-25T00:13:16.056Z,13.10
2019-02-25T00:15:48.783Z,7.30
2019-02-25T00:18:21.978Z,11.75
2019-02-25T00:20:54.957Z,12.40
2019-02-25T00:23:27.770Z,8.30
2019-02-25T00:26:00.560Z,10.65
2019-02-25T00:28:34.104Z,12.68
2019-02-25T00:31:06.553Z,7.13
2019-02-25T00:33:39.982Z,8.88
2019-02-25T00:36:13.323Z,9.27
2019-02-25T00:38:46.667Z,6.40
2019-02-25T00:41:19.302Z,8.43
2019-02-25T00:43:51.814Z,10.90
2019-02-25T00:46:27.487Z,8.90
2019-02-25T00:49:00.795Z,8.13
2019-02-25T00:51:33.848Z,8.83
2019-02-25T00:56:39.008Z,5.72
2019-02-25T00:59:11.940Z,8.67
2019-02-25T01:01:44.335Z,8.30
2019-02-25T01:04:17.116Z,7.10
2019-02-25T01:06:52.120Z,11.25
2019-02-25T01:09:25.651Z,11.70
2019-02-25T01:12:00.169Z,6.57
2019-02-25T01:14:33.079Z,9.90
2019-02-25T01:17:06.271Z,9.73
2019-02-25T01:22:12.835Z,7.30
2019-02-25T01:24:45.313Z,10.87
2019-02-25T01:27:17.697Z,9.38
2019-02-25T01:29:50.472Z,13.55
2019-02-25T01:32:23.989Z,10.08
2019-02-25T01:34:56.465Z,7.87
2019-02-25T01:37:29.946Z,11.22
2019-02-25T01:40:03.718Z,8.10
2019-02-25T01:42:40.358Z,7.67
2019-02-25T01:45:13.613Z,6.97
2019-02-25T01:47:47.937Z,4.97
2019-02-25T01:50:20.626Z,6.50
2019-02-25T01:52:53.539Z,12.47
2019-02-25T01:55:26.373Z,10.63
2019-02-25T01:58:00.290Z,9.13
2019-02-25T02:00:34.419Z,7.83
2019-02-25T02:03:07.034Z,9.80
2019-02-25T02:05:40.622Z,13.75
2019-02-25T02:08:13.440Z,10.40
2019-02-25T02:10:46.586Z,7.92
2019-02-25T02:13:19.084Z,10.35
2019-02-25T02:15:51.922Z,9.13
2019-02-25T02:18:27.721Z,6.12
2019-02-25T02:21:02.706Z,6.53
2019-02-25T02:23:34.586Z,6.43
2019-02-25T02:31:13.407Z,1.73
2019-02-25T02:33:46.079Z,4.37
2019-02-25T02:36:19.240Z,9.70
2019-02-25T02:38:51.954Z,6.83
2019-02-25T02:41:25.569Z,5.92
2019-02-25T02:44:00.026Z,4.67
2019-02-25T02:47:22.320Z,6.30
2019-02-25T02:49:54.818Z,4.40
2019-02-25T02:52:29.455Z,4.87
2019-02-25T02:55:01.588Z,6.60
2019-02-25T02:57:34.172Z,8.07
2019-02-25T03:00:12.110Z,6.97
2019-02-25T03:02:44.510Z,10.97
2019-02-25T03:05:20.743Z,4.87
2019-02-25T03:07:54.047Z,12.73
2019-02-25T03:10:30.200Z,6.40
2019-02-25T03:13:02.647Z,7.07
2019-02-25T03:15:38.139Z,6.40
2019-02-25T03:18:11.467Z,8.30
2019-02-25T03:20:43.948Z,7.53
2019-02-25T03:23:17.900Z,3.87
2019-02-25T03:25:51.516Z,11.10
2019-02-25T03:28:24.773Z,5.87
2019-02-25T03:30:57.239Z,4.97
2019-02-25T03:33:30.353Z,6.05
2019-02-25T03:36:03.770Z,6.15
2019-02-25T03:38:38.290Z,8.10
2019-02-25T03:41:11.108Z,6.10
2019-02-25T03:43:44.239Z,5.42
2019-02-25T03:46:18.486Z,16.27
2019-02-25T03:48:51.584Z,6.00
2019-02-25T03:51:24.051Z,7.58
2019-02-25T03:53:56.841Z,6.15
2019-02-25T03:59:03.419Z,3.72
2019-02-25T04:01:35.788Z,9.00
2019-02-25T04:04:08.453Z,7.40
2019-02-25T04:06:42.783Z,5.90
2019-02-25T04:09:16.714Z,5.53
2019-02-25T04:11:50.698Z,7.00
2019-02-25T04:14:23.591Z,4.33
2019-02-25T04:16:58.003Z,8.83
2019-02-25T04:19:31.488Z,5.60
2019-02-25T04:22:03.589Z,8.73
2019-02-25T04:24:35.683Z,11.83
2019-02-25T04:27:09.543Z,12.68
2019-02-25T04:29:42.506Z,5.97
2019-02-25T04:32:17.019Z,8.28
2019-02-25T04:34:49.530Z,7.97
2019-02-25T04:37:26.009Z,8.45
2019-02-25T04:39:58.466Z,8.10
2019-02-25T04:42:31.194Z,7.58
2019-02-25T04:45:04.308Z,6.65
2019-02-25T04:47:38.723Z,8.00
2019-02-25T04:50:12.638Z,8.97
2019-02-25T04:52:46.386Z,9.70
2019-02-25T04:55:18.608Z,8.47
2019-02-25T04:57:51.563Z,10.20
2019-02-25T05:00:23.962Z,7.37
2019-02-25T05:02:57.128Z,7.75
2019-02-25T05:05:31.283Z,5.87
2019-02-25T05:08:04.239Z,7.77
2019-02-25T05:10:38.928Z,3.62
2019-02-25T05:13:11.715Z,8.30
2019-02-25T05:15:45.257Z,10.75
2019-02-25T05:18:18.653Z,9.07
2019-02-25T05:20:51.287Z,4.97
2019-02-25T05:23:24.012Z,7.90
2019-02-25T05:25:57.486Z,8.60
2019-02-25T05:28:31.735Z,8.97
2019-02-25T05:31:04.503Z,9.03
2019-02-25T05:33:37.148Z,12.63
2019-02-25T05:36:10.301Z,14.73
2019-02-25T05:38:44.139Z,8.08
2019-02-25T05:41:16.917Z,10.87
2019-02-25T05:43:49.584Z,7.47
2019-02-25T05:46:22.392Z,8.65
2019-02-25T05:48:56.697Z,6.50
2019-02-25T05:51:29.274Z,10.40
2019-02-25T05:54:02.039Z,7.25
2019-02-25T05:56:34.672Z,8.00
2019-02-25T05:59:08.992Z,8.05
2019-02-25T06:01:41.132Z,9.67
2019-02-25T06:04:14.144Z,6.53
2019-02-25T06:06:46.911Z,6.12
2019-02-25T06:09:21.622Z,11.53
2019-02-25T06:11:55.400Z,10.17
2019-02-25T06:14:29.679Z,8.30
2019-02-25T06:17:06.802Z,8.63
2019-02-25T06:19:39.310Z,9.77
2019-02-25T06:22:12.368Z,7.53
2019-02-25T06:24:44.790Z,9.50
2019-02-25T06:27:18.696Z,15.32
2019-02-25T06:29:51.843Z,6.60
2019-02-25T06:32:40.952Z,7.00
2019-02-25T06:35:16.467Z,7.03
2019-02-25T06:37:52.364Z,5.13
2019-02-25T06:40:27.802Z,8.77
2019-02-25T06:43:05.852Z,8.53
2019-02-25T06:48:11.868Z,8.10
2019-02-25T06:50:44.449Z,9.07
2019-02-25T06:53:18.326Z,7.58
2019-02-25T06:55:51.328Z,12.57
2019-02-25T07:00:55.708Z,6.87
2019-02-25T07:03:29.160Z,9.03
2019-02-25T07:06:29.943Z,10.83
2019-02-25T07:09:29.756Z,11.90
2019-02-25T07:12:27.870Z,7.10
2019-02-25T07:15:18.834Z,9.47
2019-02-25T07:18:09.404Z,14.30
2019-02-25T07:21:00.399Z,13.50
2019-02-25T07:23:51.505Z,10.37
2019-02-25T07:26:42.541Z,8.10
2019-02-25T07:29:33.815Z,13.27
2019-02-25T07:32:31.692Z,11.00
2019-02-25T07:35:16.459Z,6.73
2019-02-25T07:37:56.487Z,7.03
2019-02-25T07:40:49.241Z,8.00
2019-02-25T07:43:56.704Z,11.53
2019-02-25T07:46:47.173Z,12.67
2019-02-25T07:49:33.529Z,9.60
2019-02-25T07:52:25.361Z,7.10
2019-02-25T07:55:21.160Z,6.40
2019-02-25T07:58:14.829Z,11.73
2019-02-25T08:01:23.370Z,14.43
2019-02-25T08:04:15.257Z,5.93
2019-02-25T08:07:02.123Z,9.50
2019-02-25T08:09:40.216Z,11.47
2019-02-25T08:12:46.140Z,7.80
2019-02-25T08:15:31.026Z,7.63
2019-02-25T08:18:21.039Z,8.33
2019-02-25T08:21:14.210Z,9.33
2019-02-25T08:24:04.618Z,9.28
2019-02-25T08:26:49.474Z,12.63
2019-02-25T08:29:43.434Z,8.60
2019-02-25T08:32:25.832Z,13.67
2019-02-25T08:35:16.669Z,12.13
2019-02-25T08:38:14.162Z,15.37
2019-02-25T08:41:36.966Z,11.77
2019-02-25T08:44:38.623Z,7.47
2019-02-25T08:47:22.877Z,15.40
2019-02-25T08:50:00.774Z,10.63
2019-02-25T08:52:35.089Z,15.43
2019-02-25T08:55:09.020Z,9.20
2019-02-25T08:57:42.820Z,11.50
2019-02-25T09:00:19.145Z,18.17
2019-02-25T09:02:54.013Z,15.60
2019-02-25T09:05:27.836Z,11.37
2019-02-25T09:08:02.031Z,14.63
2019-02-25T09:10:34.993Z,15.80
2019-02-25T09:13:08.717Z,18.48
2019-02-25T09:15:42.017Z,11.70
2019-02-25T09:18:14.404Z,16.67
2019-02-25T09:20:47.832Z,12.45
2019-02-25T09:23:22.009Z,16.73
2019-02-25T09:26:00.493Z,11.40
2019-02-25T09:28:38.372Z,12.23
2019-02-25T09:31:16.209Z,19.87
2019-02-25T09:33:51.918Z,16.07
2019-02-25T09:36:25.685Z,12.53
2019-02-25T09:38:58.636Z,11.78
2019-02-25T09:41:31.640Z,15.15
2019-02-25T09:44:04.276Z,12.60
2019-02-25T09:46:37.607Z,11.93
2019-02-25T09:49:11.004Z,13.30
2019-02-25T09:51:44.370Z,14.07
2019-02-25T09:56:48.780Z,11.28
2019-02-25T09:59:26.682Z,14.87
2019-02-25T10:02:03.519Z,11.60
2019-02-25T10:04:36.499Z,7.72
2019-02-25T10:07:11.073Z,14.63
2019-02-25T10:09:44.197Z,21.12
2019-02-25T10:12:17.248Z,12.20
2019-02-25T10:14:50.464Z,9.50
2019-02-25T10:19:56.178Z,9.23
2019-02-25T10:22:33.542Z,13.15
2019-02-25T10:25:07.077Z,10.65
2019-02-25T10:27:41.835Z,10.45
2019-02-25T10:30:15.170Z,11.68
2019-02-25T10:32:49.085Z,11.60
2019-02-25T10:35:22.415Z,8.85
2019-02-25T10:40:27.807Z,9.05
2019-02-25T10:43:01.386Z,12.63
2019-02-25T10:48:08.757Z,10.78
2019-02-25T10:50:45.926Z,10.88
2019-02-25T10:53:20.280Z,12.73
2019-02-25T10:56:19.279Z,13.78
2019-02-25T10:58:53.708Z,10.70
2019-02-25T11:01:26.665Z,14.03
2019-02-25T11:04:01.162Z,15.95
2019-02-25T11:06:35.993Z,11.28
2019-02-25T11:09:36.391Z,13.93
2019-02-25T11:12:09.966Z,14.03
2019-02-25T11:14:43.476Z,11.18
2019-02-25T11:19:49.196Z,9.35
2019-02-25T11:22:21.945Z,10.63
2019-02-25T11:24:55.553Z,13.60
2019-02-25T11:27:31.304Z,10.75
2019-02-25T11:30:07.365Z,9.53
2019-02-25T11:32:41.155Z,12.28
2019-02-25T11:35:15.386Z,10.10
2019-02-25T11:37:54.217Z,8.00
2019-02-25T11:40:28.955Z,11.88
2019-02-25T11:43:03.426Z,10.30
2019-02-25T11:45:38.041Z,8.55
2019-02-25T11:48:11.998Z,7.95
2019-02-25T11:50:45.050Z,9.63
2019-02-25T11:53:20.134Z,10.05
2019-02-25T11:55:53.897Z,10.13
2019-02-25T11:58:27.057Z,13.88
2019-02-25T12:01:04.558Z,11.30
2019-02-25T12:03:38.705Z,11.05
2019-02-25T12:06:11.454Z,9.33
2019-02-25T12:08:44.275Z,9.50
2019-02-25T12:11:17.488Z,9.93
2019-02-25T12:13:50.505Z,7.60
2019-02-25T12:18:55.046Z,10.90
2019-02-25T12:21:27.816Z,8.17
2019-02-25T12:24:01.431Z,9.05
2019-02-25T12:26:35.470Z,7.17
2019-02-25T12:29:11.023Z,9.93
2019-02-25T12:31:44.904Z,10.18
2019-02-25T12:34:18.595Z,8.77
2019-02-25T12:36:51.735Z,8.60
2019-02-25T12:40:31.708Z,8.10
2019-02-25T12:43:26.416Z,9.13
2019-02-25T12:46:00.229Z,9.23
2019-02-25T12:48:35.425Z,6.83
2019-02-25T12:51:10.594Z,8.40
2019-02-25T12:53:44.035Z,7.13
2019-02-25T12:56:19.549Z,6.23
2019-02-25T12:58:54.926Z,7.87
2019-02-25T13:01:30.252Z,9.50
2019-02-25T13:04:03.444Z,6.43
2019-02-25T13:06:36.836Z,6.13
2019-02-25T13:09:15.253Z,6.20
2019-02-25T13:11:48.887Z,6.73
2019-02-25T13:14:23.646Z,7.20
2019-02-25T13:16:57.170Z,7.87
2019-02-25T13:19:32.535Z,5.70
2019-02-25T13:22:05.899Z,6.30
2019-02-25T13:24:40.545Z,6.53
2019-02-25T13:27:13.879Z,5.77
2019-02-25T13:29:49.714Z,7.20
2019-02-25T13:32:23.708Z,5.60
2019-02-25T13:34:56.349Z,5.23
2019-02-25T13:37:30.619Z,5.65
2019-02-25T13:40:04.844Z,4.70
2019-02-25T13:42:44.846Z,9.17
2019-02-25T13:45:21.162Z,3.70
2019-02-25T13:47:58.080Z,4.22
2019-02-25T13:50:30.180Z,5.67
2019-02-25T13:53:03.773Z,5.20
2019-02-25T13:55:37.457Z,5.37
2019-02-25T13:58:09.850Z,4.03
2019-02-25T14:00:43.083Z,4.65
2019-02-25T14:03:16.697Z,6.30
2019-02-25T14:05:51.784Z,5.60
2019-02-25T14:08:25.511Z,6.00
2019-02-25T14:10:58.324Z,4.87
2019-02-25T14:13:32.009Z,5.70
2019-02-25T14:18:37.788Z,3.83
2019-02-25T14:21:10.949Z,4.08
2019-02-25T14:23:45.474Z,4.50
2019-02-25T14:26:19.103Z,4.78
2019-02-25T14:28:52.811Z,2.53
2019-02-25T14:31:29.938Z,3.67
2019-02-25T14:34:04.206Z,4.07
2019-02-25T14:36:36.329Z,6.47
2019-02-25T14:39:25.272Z,3.60
2019-02-25T14:41:59.159Z,5.37
2019-02-25T14:44:35.374Z,3.70
2019-02-25T14:47:19.773Z,3.72
2019-02-25T14:49:42.948Z,3.90
2019-02-25T14:52:19.301Z,3.52
2019-02-25T14:54:55.265Z,2.03
2019-02-25T14:57:30.850Z,2.20
2019-02-25T15:00:04.424Z,3.67
2019-02-25T15:02:38.989Z,3.10
2019-02-25T15:05:13.046Z,7.50
2019-02-25T15:07:46.738Z,4.77
2019-02-25T15:10:26.565Z,6.47
2019-02-25T15:13:01.548Z,6.53
2019-02-25T15:15:34.829Z,4.53
2019-02-25T15:18:08.635Z,4.97
2019-02-25T15:20:42.090Z,4.07
2019-02-25T15:23:17.214Z,4.83
2019-02-25T15:25:50.886Z,4.03
2019-02-25T15:28:24.858Z,4.93
2019-02-25T15:31:02.140Z,8.57
2019-02-25T15:33:35.475Z,6.30
2019-02-25T15:36:11.487Z,6.10
2019-02-25T15:38:43.942Z,4.50
2019-02-25T15:41:16.868Z,5.30
2019-02-25T15:43:57.977Z,5.43
2019-02-25T15:46:29.820Z,5.73
2019-02-25T15:51:37.083Z,4.80
2019-02-25T15:54:11.258Z,5.73
2019-02-25T15:56:46.164Z,4.12
2019-02-25T15:59:20.649Z,3.10
2019-02-25T16:01:55.283Z,3.53
2019-02-25T16:04:31.828Z,4.03
2019-02-25T16:07:06.602Z,4.47
2019-02-25T16:09:40.796Z,2.20
2019-02-25T16:12:15.694Z,6.53
2019-02-25T16:14:50.945Z,3.63
2019-02-25T16:17:25.020Z,6.10
2019-02-25T16:19:58.566Z,5.80
2019-02-25T16:22:34.577Z,5.13
2019-02-25T16:25:14.120Z,3.47
2019-02-25T16:27:49.872Z,3.30
2019-02-25T16:30:23.580Z,4.13
2019-02-25T16:32:59.670Z,3.87
2019-02-25T16:35:34.331Z,5.37
2019-02-25T16:38:08.210Z,7.60
2019-02-25T16:40:42.417Z,18.42
2019-02-25T16:43:19.091Z,12.03
2019-02-25T16:45:52.579Z,13.10
2019-02-25T16:48:27.728Z,30.62
2019-02-25T16:51:02.552Z,32.45
2019-02-25T16:53:39.057Z,23.22
2019-02-25T16:56:14.160Z,20.70
2019-02-25T16:58:49.858Z,19.48
2019-02-25T17:01:25.913Z,14.15
2019-02-25T17:03:59.679Z,19.55
2019-02-25T17:06:34.279Z,13.95
2019-02-25T17:09:11.782Z,14.00
2019-02-25T17:11:46.049Z,10.55
2019-02-25T17:14:21.671Z,13.98
2019-02-25T17:16:57.022Z,10.95
2019-02-25T17:19:35.786Z,12.88
2019-02-25T17:22:22.157Z,14.13
2019-02-25T17:25:09.646Z,15.03
2019-02-25T17:27:47.935Z,10.90
2019-02-25T17:30:22.029Z,14.53
2019-02-25T17:32:56.024Z,12.95
2019-02-25T17:35:33.092Z,16.25
2019-02-25T17:38:07.235Z,14.03
2019-02-25T17:40:39.920Z,13.62
2019-02-25T17:43:13.994Z,8.75
2019-02-25T17:45:48.023Z,10.25
2019-02-25T17:50:55.120Z,16.02
2019-02-25T17:53:31.071Z,12.75
2019-02-25T17:56:04.996Z,22.82
2019-02-25T18:01:17.019Z,13.62
2019-02-25T18:03:52.248Z,28.87
2019-02-25T18:06:30.121Z,25.27
2019-02-25T18:09:04.944Z,19.50
2019-02-25T18:11:43.290Z,24.95
2019-02-25T18:14:19.873Z,26.57
2019-02-25T18:16:53.980Z,41.15
2019-02-25T18:19:31.486Z,30.72
2019-02-25T18:22:17.968Z,30.05
2019-02-25T18:24:50.257Z,20.50
2019-02-25T18:27:24.655Z,22.27
2019-02-25T18:30:16.209Z,20.80
2019-02-25T18:32:53.537Z,25.02
2019-02-25T18:35:30.538Z,27.32
2019-02-25T18:38:07.240Z,20.25
2019-02-25T18:40:46.230Z,15.53
2019-02-25T18:43:21.623Z,17.87
2019-02-25T18:45:56.268Z,20.00
2019-02-25T18:48:31.037Z,17.85
2019-02-25T18:51:05.105Z,26.12
2019-02-25T18:53:42.193Z,19.85
2019-02-25T18:56:16.857Z,16.07
2019-02-25T18:58:53.746Z,16.93
2019-02-25T19:01:28.386Z,17.30
2019-02-25T19:04:05.897Z,15.20
2019-02-25T19:06:41.880Z,15.78
2019-02-25T19:09:31.215Z,15.38
2019-02-25T19:12:06.268Z,17.70
2019-02-25T19:14:39.330Z,12.93
2019-02-25T19:17:12.633Z,15.95
2019-02-25T19:19:46.979Z,16.00
2019-02-25T19:22:23.488Z,23.32
2019-02-25T19:24:57.799Z,18.50
2019-02-25T19:27:33.636Z,16.15
2019-02-25T19:30:08.250Z,17.60
2019-02-25T19:32:43.145Z,21.87
2019-02-25T19:35:17.375Z,20.17
2019-02-25T19:37:52.079Z,27.00
2019-02-25T19:40:25.934Z,22.50
2019-02-25T19:43:06.039Z,22.60
2019-02-25T19:45:40.899Z,23.38
2019-02-25T19:48:19.263Z,18.92
2019-02-25T19:50:54.486Z,21.48
2019-02-25T19:53:31.469Z,14.80
2019-02-25T19:56:04.080Z,15.83
2019-02-25T19:58:43.685Z,16.80
2019-02-25T20:01:19.434Z,16.50
2019-02-25T20:03:52.111Z,17.15
2019-02-25T20:06:26.261Z,13.50
2019-02-25T20:09:21.694Z,17.98
2019-02-25T20:11:54.814Z,17.52
2019-02-25T20:16:59.326Z,13.30
2019-02-25T20:19:32.814Z,15.50
2019-02-25T20:22:07.868Z,12.75
2019-02-25T20:24:46.041Z,13.45
2019-02-25T20:27:19.279Z,15.23
2019-02-25T20:29:52.036Z,12.33
2019-02-25T20:32:25.133Z,14.58
2019-02-25T20:34:59.334Z,19.02
2019-02-25T20:37:33.991Z,12.63
2019-02-25T20:40:09.255Z,13.38
2019-02-25T20:42:46.749Z,19.37
2019-02-25T20:45:23.649Z,12.90
2019-02-25T20:47:57.274Z,14.78
2019-02-25T20:50:31.631Z,13.93
2019-02-25T20:53:09.202Z,13.83
2019-02-25T20:55:44.331Z,11.10
2019-02-25T20:58:18.800Z,15.60
2019-02-25T21:00:52.941Z,11.22
2019-02-25T21:03:27.689Z,14.03
2019-02-25T21:06:07.775Z,11.28
2019-02-25T21:08:44.580Z,9.90
2019-02-25T21:11:20.624Z,11.28
2019-02-25T21:13:58.696Z,11.93
2019-02-25T21:16:34.598Z,11.43
2019-02-25T21:19:10.167Z,9.63
2019-02-25T21:21:43.287Z,14.58
2019-02-25T21:24:16.828Z,10.70
2019-02-25T21:26:55.229Z,8.20
2019-02-25T21:29:31.758Z,9.45
2019-02-25T21:32:05.670Z,8.05
2019-02-25T21:34:38.369Z,10.23
2019-02-25T21:37:13.385Z,10.38
2019-02-25T21:39:46.039Z,9.48
2019-02-25T21:42:21.800Z,14.03
2019-02-25T21:44:57.034Z,12.40
2019-02-25T21:47:32.824Z,8.55
2019-02-25T21:50:07.421Z,12.47
2019-02-25T21:52:43.550Z,11.22
2019-02-25T21:55:18.256Z,11.45
2019-02-25T21:57:54.929Z,12.35
2019-02-25T22:00:31.965Z,12.85
2019-02-25T22:03:08.220Z,13.48
2019-02-25T22:05:40.323Z,11.53
2019-02-25T22:08:13.661Z,11.10
2019-02-25T22:13:20.863Z,6.72
2019-02-25T22:15:53.812Z,8.40
2019-02-25T22:18:29.850Z,11.70
2019-02-25T22:21:07.139Z,9.93
2019-02-25T22:23:38.577Z,10.40
2019-02-25T22:28:44.208Z,6.90
2019-02-25T22:31:19.098Z,8.90
2019-02-25T22:33:52.002Z,10.07
2019-02-25T22:36:25.918Z,9.68
2019-02-25T22:39:03.459Z,15.13
2019-02-25T22:41:36.549Z,12.30
2019-02-25T22:44:10.608Z,11.43
2019-02-25T22:46:44.195Z,8.30
2019-02-25T22:49:18.425Z,10.60
2019-02-25T22:51:51.914Z,9.50
2019-02-25T22:54:27.771Z,8.90
2019-02-25T22:57:00.641Z,10.33
2019-02-25T22:59:35.115Z,9.20
2019-02-25T23:02:08.771Z,11.93
2019-02-25T23:04:44.859Z,10.37
2019-02-25T23:07:20.532Z,11.57
2019-02-25T23:09:54.484Z,10.97
2019-02-25T23:12:29.434Z,9.33
2019-02-25T23:15:03.851Z,7.37
2019-02-25T23:17:37.526Z,6.97
2019-02-25T23:20:11.248Z,11.00
2019-02-25T23:22:46.117Z,9.33
2019-02-25T23:25:18.889Z,10.33
2019-02-25T23:27:53.504Z,8.63
2019-02-25T23:30:26.915Z,7.67
2019-02-25T23:33:00.877Z,8.28
2019-02-25T23:35:33.738Z,9.87
2019-02-25T23:38:06.536Z,12.00
2019-02-25T23:40:40.266Z,7.50
2019-02-25T23:43:16.692Z,10.17
2019-02-25T23:45:49.465Z,6.53
2019-02-25T23:48:26.430Z,11.53
2019-02-25T23:51:00.673Z,9.30
2019-02-25T23:53:35.130Z,8.30
2019-02-25T23:56:07.278Z,9.03
2019-02-25T23:58:42.377Z,11.50
